createdAt,value
2018-04-08T07:15:54.610Z,57.10
2018-04-08T07:18:23.485Z,56.20
2018-04-08T07:24:11.983Z,56.70
2018-04-08T07:26:40.619Z,57.80
2018-04-08T07:29:08.487Z,58.40
2018-04-08T07:31:36.417Z,57.60
2018-04-08T07:34:04.372Z,57.70
2018-04-08T07:36:33.023Z,61.00
2018-04-08T07:39:01.004Z,61.00
2018-04-08T07:41:29.675Z,59.60
2018-04-08T07:43:57.580Z,59.60
2018-04-08T07:46:25.592Z,60.60
2018-04-08T07:48:53.546Z,60.20
2018-04-08T07:51:21.497Z,60.60
2018-04-08T07:53:49.458Z,59.30
2018-04-08T07:56:17.413Z,58.60
2018-04-08T07:58:46.147Z,59.60
2018-04-08T08:01:14.141Z,59.60
2018-04-08T08:03:42.039Z,59.20
2018-04-08T08:06:10.017Z,61.80
2018-04-08T08:08:37.931Z,61.50
2018-04-08T08:11:05.975Z,61.70
2018-04-08T08:13:33.928Z,59.90
2018-04-08T08:16:01.879Z,59.40
2018-04-08T08:18:30.546Z,58.40
2018-04-08T08:20:59.216Z,59.40
2018-04-08T08:23:27.184Z,59.30
2018-04-08T08:25:55.149Z,61.00
2018-04-08T08:28:23.222Z,59.70
2018-04-08T08:30:51.292Z,59.90
2018-04-08T08:33:19.158Z,59.00
2018-04-08T08:35:47.098Z,57.30
2018-04-08T08:38:15.238Z,57.20
2018-04-08T08:40:43.117Z,57.00
2018-04-08T08:43:11.084Z,57.00
2018-04-08T08:45:38.994Z,55.70
2018-04-08T08:48:06.864Z,55.30
2018-04-08T08:50:34.746Z,55.50
2018-04-08T08:53:02.628Z,56.20
2018-04-08T08:55:31.254Z,56.00
2018-04-08T08:57:59.125Z,56.00
2018-04-08T09:00:27.006Z,57.10
2018-04-08T09:02:54.895Z,56.70
2018-04-08T09:05:22.834Z,57.00
2018-04-08T09:07:50.727Z,58.10
2018-04-08T09:10:18.681Z,57.80
2018-04-08T09:15:22.764Z,57.80
2018-04-08T09:17:50.678Z,57.80
2018-04-08T09:20:38.306Z,58.60
2018-04-08T09:23:12.752Z,59.70
2018-04-08T09:25:47.192Z,58.90
2018-04-08T09:28:15.048Z,58.90
2018-04-08T09:30:43.639Z,57.80
2018-04-08T09:33:11.508Z,57.80
2018-04-08T09:35:39.325Z,57.30
2018-04-08T09:38:07.327Z,57.00
2018-04-08T09:40:35.874Z,57.80
2018-04-08T09:43:04.529Z,57.30
2018-04-08T09:45:32.352Z,57.10
2018-04-08T09:48:00.951Z,56.90
2018-04-08T09:50:29.509Z,57.00
2018-04-08T09:52:58.044Z,57.40
2018-04-08T09:55:25.957Z,57.30
2018-04-08T09:57:53.832Z,57.60
2018-04-08T10:00:41.145Z,59.40
2018-04-08T10:03:14.749Z,59.00
2018-04-08T10:05:52.322Z,58.10
2018-04-08T10:08:20.208Z,57.80
2018-04-08T10:10:48.009Z,57.70
2018-04-08T10:13:15.795Z,56.90
2018-04-08T10:15:43.811Z,58.40
2018-04-08T10:18:12.430Z,58.30
2018-04-08T10:20:40.488Z,58.20
2018-04-08T10:23:08.409Z,56.50
2018-04-08T10:25:36.357Z,56.70
2018-04-08T10:28:04.349Z,55.70
2018-04-08T10:30:32.334Z,55.60
2018-04-08T10:33:00.160Z,55.80
2018-04-08T10:35:28.054Z,56.50
2018-04-08T10:37:56.123Z,56.10
2018-04-08T10:40:24.503Z,56.40
2018-04-08T10:42:52.372Z,57.50
2018-04-08T10:45:20.160Z,57.70
2018-04-08T10:47:48.779Z,56.90
2018-04-08T10:50:16.563Z,56.90
2018-04-08T10:52:44.334Z,57.40
2018-04-08T10:55:12.133Z,57.20
2018-04-08T10:57:40.696Z,61.00
2018-04-08T11:00:08.490Z,61.00
2018-04-08T11:02:37.450Z,59.60
2018-04-08T11:05:06.150Z,58.80
2018-04-08T11:07:34.704Z,58.90
2018-04-08T11:10:02.506Z,58.80
2018-04-08T11:12:31.107Z,58.90
2018-04-08T11:14:58.921Z,58.90
2018-04-08T11:17:26.723Z,59.10
2018-04-08T11:19:54.655Z,58.90
2018-04-08T11:22:22.464Z,59.80
2018-04-08T11:24:50.332Z,60.40
2018-04-08T11:27:18.119Z,60.00
2018-04-08T11:29:45.994Z,60.70
2018-04-08T11:32:13.773Z,60.00
2018-04-08T11:34:41.579Z,60.20
2018-04-08T11:37:10.140Z,60.90
2018-04-08T11:39:38.047Z,60.70
2018-04-08T11:42:05.826Z,60.60
2018-04-08T11:44:33.711Z,62.00
2018-04-08T11:47:01.604Z,62.10
2018-04-08T11:49:29.468Z,62.70
2018-04-08T11:51:57.343Z,62.70
2018-04-08T11:54:26.010Z,62.80
2018-04-08T11:56:53.801Z,62.70
2018-04-08T11:59:22.407Z,64.00
2018-04-08T12:01:50.276Z,63.90
2018-04-08T12:04:18.215Z,62.90
2018-04-08T12:06:46.904Z,60.80
2018-04-08T12:09:15.558Z,61.20
2018-04-08T12:11:43.450Z,61.10
2018-04-08T12:14:12.220Z,57.50
2018-04-08T12:16:40.056Z,57.40
2018-04-08T12:19:07.966Z,56.90
2018-04-08T12:21:36.627Z,59.60
2018-04-08T12:24:04.435Z,59.70
2018-04-08T12:26:32.357Z,58.80
2018-04-08T12:29:00.291Z,60.50
2018-04-08T12:31:28.260Z,60.50
2018-04-08T12:33:56.147Z,59.50
2018-04-08T12:36:24.030Z,57.40
2018-04-08T12:38:51.891Z,57.40
2018-04-08T12:41:19.706Z,55.60
2018-04-08T12:43:47.520Z,54.50
2018-04-08T12:46:15.322Z,55.20
2018-04-08T12:48:43.968Z,55.60
2018-04-08T12:51:11.765Z,55.70
2018-04-08T12:53:40.726Z,55.80
2018-04-08T12:56:08.604Z,55.60
2018-04-08T12:58:36.441Z,55.20
2018-04-08T13:01:04.278Z,57.50
2018-04-08T13:03:32.245Z,58.50
2018-04-08T13:06:00.056Z,58.20
2018-04-08T13:08:28.148Z,57.40
2018-04-08T13:10:56.711Z,56.50
2018-04-08T13:13:24.534Z,56.50
2018-04-08T13:15:52.694Z,60.50
2018-04-08T13:18:20.545Z,59.60
2018-04-08T13:20:49.159Z,61.10
2018-04-08T13:23:16.928Z,61.00
2018-04-08T13:25:44.776Z,61.10
2018-04-08T13:28:12.619Z,60.50
2018-04-08T13:30:41.275Z,59.60
2018-04-08T13:33:09.091Z,59.40
2018-04-08T13:35:36.904Z,59.70
2018-04-08T13:38:04.752Z,60.50
2018-04-08T13:40:32.614Z,60.70
2018-04-08T13:43:00.453Z,61.30
2018-04-08T13:45:28.236Z,63.10
2018-04-08T13:47:56.074Z,66.10
2018-04-08T13:50:24.613Z,58.70
2018-04-08T13:52:52.422Z,58.70
2018-04-08T13:55:20.988Z,57.60
2018-04-08T13:57:49.551Z,54.60
2018-04-08T14:00:17.363Z,54.60
2018-04-08T14:02:45.236Z,55.80
2018-04-08T14:05:13.008Z,55.90
2018-04-08T14:07:40.963Z,56.10
2018-04-08T14:10:08.724Z,56.10
2018-04-08T14:12:36.512Z,56.00
2018-04-08T14:15:04.340Z,56.10
2018-04-08T14:17:32.879Z,56.60
2018-04-08T14:20:00.676Z,56.60
2018-04-08T14:22:29.227Z,56.50
2018-04-08T14:24:57.030Z,56.50
2018-04-08T14:27:24.784Z,56.00
2018-04-08T14:29:53.403Z,56.00
2018-04-08T14:32:21.243Z,56.00
2018-04-08T14:34:49.762Z,56.50
2018-04-08T14:37:17.607Z,56.40
2018-04-08T14:39:45.451Z,54.70
2018-04-08T14:42:14.014Z,54.90
2018-04-08T14:44:41.969Z,54.90
2018-04-08T14:47:09.918Z,54.70
2018-04-08T14:49:37.758Z,54.50
2018-04-08T14:52:05.529Z,54.50
2018-04-08T14:54:33.303Z,54.30
2018-04-08T14:57:01.851Z,54.30
2018-04-08T14:59:30.477Z,54.20
2018-04-08T15:01:58.363Z,54.10
2018-04-08T15:04:26.186Z,54.50
2018-04-08T15:06:54.057Z,54.50
2018-04-08T15:09:21.857Z,54.70
2018-04-08T15:11:49.619Z,54.70
2018-04-08T15:14:17.447Z,54.70
2018-04-08T15:16:45.291Z,54.70
2018-04-08T15:19:13.884Z,55.30
2018-04-08T15:21:41.741Z,55.20
2018-04-08T15:24:09.669Z,55.10
2018-04-08T15:26:37.443Z,55.70
2018-04-08T15:29:05.248Z,55.20
2018-04-08T15:31:33.038Z,55.30
2018-04-08T15:34:00.913Z,56.10
2018-04-08T15:36:29.540Z,56.60
2018-04-08T15:38:58.064Z,57.30
2018-04-08T15:41:25.911Z,57.20
2018-04-08T15:43:53.791Z,56.10
2018-04-08T15:46:21.724Z,56.30
2018-04-08T15:48:50.299Z,56.80
2018-04-08T15:51:18.966Z,56.80
2018-04-08T15:53:46.763Z,56.60
2018-04-08T15:56:15.302Z,56.20
2018-04-08T15:58:43.089Z,56.20
2018-04-08T16:01:10.877Z,56.90
2018-04-08T16:03:38.651Z,57.20
2018-04-08T16:06:06.555Z,56.90
2018-04-08T16:08:34.360Z,57.60
2018-04-08T16:11:02.911Z,57.00
2018-04-08T16:13:30.774Z,57.00
2018-04-08T16:15:58.581Z,57.40
2018-04-08T16:18:27.154Z,58.70
2018-04-08T16:20:55.766Z,59.20
2018-04-08T16:23:23.635Z,59.20
2018-04-08T16:25:51.506Z,59.50
2018-04-08T16:28:19.371Z,60.40
2018-04-08T16:30:47.223Z,60.60
2018-04-08T16:33:15.030Z,60.80
2018-04-08T16:35:42.900Z,61.10
2018-04-08T16:38:10.729Z,61.50
2018-04-08T16:40:38.535Z,62.30
2018-04-08T16:43:06.446Z,62.50
2018-04-08T16:45:34.313Z,62.60
2018-04-08T16:48:02.194Z,62.90
2018-04-08T16:50:30.045Z,63.30
2018-04-08T16:52:57.958Z,63.70
2018-04-08T16:55:25.806Z,63.60
2018-04-08T16:57:53.745Z,63.80
2018-04-08T17:00:21.639Z,65.90
2018-04-08T17:02:49.427Z,65.10
2018-04-08T17:05:17.244Z,65.10
2018-04-08T17:07:45.065Z,65.40
2018-04-08T17:10:12.856Z,65.90
2018-04-08T17:12:41.478Z,66.50
2018-04-08T17:15:09.475Z,66.50
2018-04-08T17:17:37.409Z,66.80
2018-04-08T17:20:05.312Z,67.20
2018-04-08T17:22:33.131Z,67.20
2018-04-08T17:25:00.978Z,67.30
2018-04-08T17:27:29.601Z,68.40
2018-04-08T17:29:57.490Z,68.40
2018-04-08T17:32:25.305Z,69.30
2018-04-08T17:34:53.137Z,68.00
2018-04-08T17:37:21.957Z,68.60
2018-04-08T17:39:49.773Z,68.50
2018-04-08T17:42:18.487Z,69.40
2018-04-08T17:44:47.230Z,69.90
2018-04-08T17:47:15.231Z,69.80
2018-04-08T17:49:43.079Z,70.80
2018-04-08T17:52:11.051Z,71.20
2018-04-08T17:54:38.914Z,72.30
2018-04-08T17:57:07.052Z,73.00
2018-04-08T17:59:35.265Z,73.30
2018-04-08T18:02:03.144Z,73.60
2018-04-08T18:04:31.052Z,74.50
2018-04-08T18:06:58.889Z,74.70
2018-04-08T18:09:27.575Z,76.10
2018-04-08T18:11:56.233Z,77.00
2018-04-08T18:14:24.201Z,76.90
2018-04-08T18:16:52.022Z,77.70
2018-04-08T18:19:19.952Z,78.40
2018-04-08T18:21:49.160Z,79.20
2018-04-08T18:24:17.778Z,79.70
2018-04-08T18:26:45.680Z,79.60
2018-04-08T18:29:13.498Z,80.40
2018-04-08T18:31:41.307Z,81.60
2018-04-08T18:34:09.160Z,82.10
2018-04-08T18:36:37.034Z,82.80
2018-04-08T18:39:05.010Z,83.40
2018-04-08T18:41:32.844Z,83.60
2018-04-08T18:44:00.755Z,83.70
2018-04-08T18:46:28.543Z,83.70
2018-04-08T18:48:57.161Z,84.70
2018-04-08T18:51:25.106Z,84.70
2018-04-08T18:53:52.954Z,85.70
2018-04-08T18:56:21.588Z,85.90
2018-04-08T18:58:49.446Z,85.90
2018-04-08T19:01:17.285Z,86.00
2018-04-08T19:03:45.895Z,87.70
2018-04-08T19:06:13.754Z,87.70
2018-04-08T19:08:41.567Z,87.70
2018-04-08T19:11:09.422Z,87.40
2018-04-08T19:13:37.308Z,88.00
2018-04-08T19:16:05.916Z,88.80
2018-04-08T19:18:33.704Z,88.80
2018-04-08T19:21:02.496Z,89.00
2018-04-08T19:23:30.344Z,89.40
2018-04-08T19:25:58.209Z,89.40
2018-04-08T19:28:26.082Z,90.00
2018-04-08T19:30:53.952Z,90.00
2018-04-08T19:33:21.845Z,89.90
2018-04-08T19:35:49.875Z,90.10
2018-04-08T19:38:17.677Z,90.40
2018-04-08T19:40:45.560Z,90.60
2018-04-08T19:43:13.475Z,90.80
2018-04-08T19:45:41.344Z,90.90
2018-04-08T19:48:09.309Z,90.80
2018-04-08T19:50:37.394Z,91.10
2018-04-08T19:53:05.490Z,91.30
2018-04-08T19:55:33.416Z,91.60
2018-04-08T19:58:01.534Z,91.70
2018-04-08T20:00:30.124Z,91.70
2018-04-08T20:02:58.435Z,91.90
2018-04-08T20:05:27.668Z,92.20
2018-04-08T20:07:56.210Z,92.20
2018-04-08T20:10:24.666Z,92.10
2018-04-08T20:12:53.066Z,92.50
2018-04-08T20:15:22.268Z,92.30
2018-04-08T20:17:51.406Z,92.20
2018-04-08T20:20:19.928Z,92.20
2018-04-08T20:22:49.031Z,91.90
2018-04-08T20:25:18.096Z,91.90
2018-04-08T20:27:46.211Z,91.90
2018-04-08T20:30:15.088Z,91.90
2018-04-08T20:32:43.977Z,91.90
2018-04-08T20:35:13.044Z,91.80
2018-04-08T20:37:41.054Z,91.80
2018-04-08T20:40:09.845Z,92.10
2018-04-08T20:42:37.733Z,92.10
2018-04-08T20:45:05.592Z,92.60
2018-04-08T20:47:33.397Z,92.50
2018-04-08T20:50:01.382Z,92.50
2018-04-08T20:52:29.308Z,92.60
2018-04-08T20:54:57.372Z,92.30
2018-04-08T20:57:25.236Z,92.70
2018-04-08T20:59:53.178Z,93.00
2018-04-08T21:02:21.960Z,93.00
2018-04-08T21:04:50.546Z,93.10
2018-04-08T21:07:23.296Z,93.00
2018-04-08T21:09:51.288Z,93.00
2018-04-08T21:12:19.933Z,93.30
2018-04-08T21:14:47.762Z,93.20
2018-04-08T21:17:15.610Z,93.40
2018-04-08T21:19:44.276Z,93.40
2018-04-08T21:22:12.076Z,93.40
2018-04-08T21:24:40.114Z,93.60
2018-04-08T21:27:08.810Z,93.90
2018-04-08T21:29:37.407Z,94.10
2018-04-08T21:32:06.065Z,94.10
2018-04-08T21:34:34.759Z,94.30
2018-04-08T21:37:03.317Z,94.60
2018-04-08T21:39:31.224Z,94.60
2018-04-08T21:41:59.142Z,95.00
2018-04-08T21:44:27.030Z,94.80
2018-04-08T21:46:54.976Z,94.90
2018-04-08T21:49:22.822Z,94.80
2018-04-08T21:51:50.746Z,94.90
2018-04-08T21:54:19.495Z,94.80
